Time;durP1;ratioP1;P1;durP2;ratioP2;P2;SDS_P1;SDS_P2;PMS_P1;PMS_P2;Temp;Humidity;BMP_temperature;BMP_pressure;BME280_temperature;BME280_humidity;BME280_pressure;Samples;Min_cycle;Max_cycle;Signal;HPM_P1;HPM_P2
2022/07/07 00:02:54;;;;;;;1.50;1.40;;;;;;;25.55;nan;100581.00;20191973;28;98311;-76
2022/07/07 00:12:54;;;;;;;1.77;1.55;;;;;;;25.48;nan;100580.72;20195083;28;97573;-76
2022/07/07 00:22:55;;;;;;;1.77;1.30;;;;;;;25.50;nan;100573.50;20195454;28;97372;-78
2022/07/07 00:32:55;;;;;;;1.27;1.17;;;;;;;25.33;nan;100576.81;20196695;28;97578;-76
2022/07/07 00:42:57;;;;;;;2.65;1.58;;;;;;;25.15;nan;100571.41;20184702;28;100875;-77
2022/07/07 00:52:58;;;;;;;1.50;1.40;;;;;;;25.07;nan;100580.06;20197811;28;99606;-76
2022/07/07 01:02:58;;;;;;;1.52;1.25;;;;;;;24.96;nan;100585.50;20184038;28;97652;-76
2022/07/07 01:13:03;;;;;;;2.03;1.27;;;;;;;24.89;nan;100583.41;20189162;28;97603;-76
2022/07/07 01:23:04;;;;;;;3.30;1.40;;;;;;;24.82;nan;100579.63;20196821;28;97177;-76
2022/07/07 01:33:05;;;;;;;2.30;1.85;;;;;;;24.74;nan;100579.47;20200903;28;100653;-76
2022/07/07 01:43:05;;;;;;;1.50;1.40;;;;;;;24.70;nan;100578.09;20207487;28;97308;-76
2022/07/07 01:53:06;;;;;;;1.90;1.50;;;;;;;24.68;nan;100587.97;20201343;28;98482;-76
2022/07/07 02:03:06;;;;;;;1.70;1.60;;;;;;;24.56;nan;100585.44;20197971;28;97493;-76
2022/07/07 02:13:07;;;;;;;2.50;1.70;;;;;;;24.56;nan;100581.91;20206051;28;98738;-76
2022/07/07 02:23:08;;;;;;;1.75;1.60;;;;;;;24.50;nan;100587.75;20204210;28;97824;-76
2022/07/07 02:33:09;;;;;;;2.17;1.77;;;;;;;24.43;nan;100588.31;20200007;28;97958;-75
2022/07/07 02:43:13;;;;;;;2.15;1.58;;;;;;;24.35;nan;100584.66;20202941;28;96916;-76
2022/07/07 02:53:14;;;;;;;1.80;1.70;;;;;;;24.32;nan;100585.78;20207734;28;97739;-76
2022/07/07 03:03:15;;;;;;;3.90;1.70;;;;;;;24.25;nan;100582.00;20199470;28;97009;-76
2022/07/07 03:13:15;;;;;;;2.72;1.70;;;;;;;24.19;nan;100586.00;20208805;28;101053;-77
2022/07/07 03:23:16;;;;;;;4.00;1.98;;;;;;;24.11;nan;100578.75;20203146;28;98437;-77
2022/07/07 03:33:16;;;;;;;3.65;2.50;;;;;;;24.07;nan;100580.00;20194867;28;100886;-76
2022/07/07 03:43:17;;;;;;;8.50;3.70;;;;;;;24.03;nan;100590.97;20194288;28;98994;-76
2022/07/07 03:53:17;;;;;;;7.25;4.50;;;;;;;24.01;nan;100595.53;20190101;28;101299;-76
2022/07/07 04:03:18;;;;;;;25.92;12.23;;;;;;;24.00;nan;100601.81;20196784;28;97886;-76
2022/07/07 04:13:18;;;;;;;5.88;3.70;;;;;;;23.63;nan;100597.81;20201921;28;97724;-79
2022/07/07 04:23:19;;;;;;;3.30;2.17;;;;;;;23.58;nan;100597.38;20211517;28;98245;-77
2022/07/07 04:33:19;;;;;;;2.50;1.95;;;;;;;23.43;nan;100589.75;20222378;28;96895;-77
2022/07/07 04:43:20;;;;;;;3.33;2.30;;;;;;;22.78;nan;100596.88;20220687;28;97426;-76
2022/07/07 04:53:20;;;;;;;4.07;2.50;;;;;;;22.61;nan;100585.84;20250181;28;99952;-77
2022/07/07 05:03:21;;;;;;;3.15;2.10;;;;;;;22.07;nan;100598.81;20357937;28;96606;-77
2022/07/07 05:13:21;;;;;;;5.45;2.53;;;;;;;22.32;nan;100596.91;20365116;28;96429;-74
2022/07/07 05:23:24;;;;;;;5.20;2.72;;;;;;;22.35;nan;100590.53;20369914;28;97588;-75
2022/07/07 05:33:25;;;;;;;2.92;2.50;;;;;;;22.30;nan;100600.63;20359803;28;96217;-75
2022/07/07 05:43:26;;;;;;;5.80;2.42;;;;;;;22.59;nan;100603.59;20445485;28;52463;-76
2022/07/07 05:53:26;;;;;;;2.42;2.22;;;;;;;22.67;nan;100600.38;20440454;28;95258;-75
2022/07/07 06:03:27;;;;;;;3.67;2.30;;;;;;;22.85;nan;100600.66;20446318;28;91315;-74
2022/07/07 06:13:27;;;;;;;4.05;2.10;;;;;;;23.00;nan;100591.50;20474593;28;84302;-74
2022/07/07 06:23:28;;;;;;;2.97;2.00;;;;;;;23.02;nan;100599.28;20489971;28;91490;-76
2022/07/07 06:33:29;;;;;;;3.65;2.03;;;;;;;23.34;nan;100588.75;20446296;28;95877;-77
2022/07/07 06:43:30;;;;;;;5.22;1.92;;;;;;;23.31;nan;100589.00;20484567;28;96016;-82
2022/07/07 06:53:30;;;;;;;2.38;1.85;;;;;;;23.49;nan;100576.03;20313575;28;96883;-85
2022/07/07 07:03:31;;;;;;;3.65;1.90;;;;;;;23.42;nan;100584.63;20249147;28;97056;-86
2022/07/07 07:13:32;;;;;;;3.53;1.85;;;;;;;23.66;nan;100579.91;20255852;28;97200;-86
2022/07/07 07:23:37;;;;;;;2.63;1.70;;;;;;;23.73;nan;100582.88;20258046;28;96961;-89
2022/07/07 07:33:38;;;;;;;2.05;1.85;;;;;;;23.84;nan;100571.38;20250836;28;98103;-86
2022/07/07 07:43:39;;;;;;;4.93;2.10;;;;;;;23.95;nan;100571.31;20257125;28;98439;-84
2022/07/07 07:53:40;;;;;;;2.20;1.90;;;;;;;23.96;nan;100565.06;20255831;28;97022;-85
2022/07/07 08:03:41;;;;;;;2.33;1.80;;;;;;;24.10;nan;100563.00;20241512;28;99668;-86
2022/07/07 08:13:41;;;;;;;2.72;1.77;;;;;;;24.23;nan;100566.25;20244216;28;99107;-85
2022/07/07 08:23:42;;;;;;;3.22;1.90;;;;;;;24.36;nan;100563.34;20248141;28;99369;-81
2022/07/07 08:33:42;;;;;;;4.63;1.80;;;;;;;24.46;nan;100552.78;20254745;28;97844;-84
2022/07/07 08:43:43;;;;;;;5.50;1.65;;;;;;;24.57;nan;100557.97;20236270;28;97052;-82
2022/07/07 08:53:48;;;;;;;5.57;1.73;;;;;;;24.72;nan;100549.66;20231723;28;100665;-82
2022/07/07 09:03:48;;;;;;;6.68;1.63;;;;;;;24.81;nan;100545.34;20256191;28;97680;-83
2022/07/07 09:13:49;;;;;;;4.55;1.80;;;;;;;24.91;nan;100517.88;20245769;28;99847;-81
2022/07/07 09:23:53;;;;;;;2.83;1.98;;;;;;;25.03;nan;100525.69;20264148;28;98240;-82
2022/07/07 09:34:12;;;;;;;2.53;1.50;;;;;;;25.12;nan;100522.19;20261987;28;97232;-82
2022/07/07 09:44:13;;;;;;;2.00;1.40;;;;;;;25.19;nan;100527.75;20252016;28;97541;-81
2022/07/07 09:54:15;;;;;;;3.85;1.60;;;;;;;25.25;nan;100532.47;20270179;28;97076;-81
2022/07/07 10:04:19;;;;;;;2.78;1.40;;;;;;;25.30;nan;100532.06;20272627;28;96861;-82
2022/07/07 10:14:43;;;;;;;3.20;1.35;;;;;;;25.33;nan;100529.97;20273265;28;97127;-82
2022/07/07 10:24:44;;;;;;;2.25;1.52;;;;;;;25.37;nan;100525.22;20278198;28;96848;-81
2022/07/07 10:34:50;;;;;;;3.00;1.37;;;;;;;25.41;nan;100527.47;20269449;28;96903;-82
2022/07/07 10:44:53;;;;;;;1.48;1.38;;;;;;;25.45;nan;100520.06;20272352;28;96911;-82
2022/07/07 10:55:01;;;;;;;1.95;1.30;;;;;;;25.49;nan;100502.88;20271822;28;96915;-82
2022/07/07 11:05:14;;;;;;;1.67;1.52;;;;;;;25.56;nan;100501.31;20266465;28;97224;-81
2022/07/07 11:15:14;;;;;;;1.77;1.27;;;;;;;25.63;nan;100490.13;20269761;28;96856;-81
2022/07/07 11:25:19;;;;;;;2.75;1.30;;;;;;;25.67;nan;100460.53;20269738;28;97549;-81
2022/07/07 11:35:19;;;;;;;1.20;1.10;;;;;;;25.72;nan;100457.44;20256252;28;97528;-82
2022/07/07 11:45:23;;;;;;;1.50;1.40;;;;;;;25.76;nan;100450.03;20248833;28;97170;-82
2022/07/07 11:55:24;;;;;;;1.52;1.35;;;;;;;25.83;nan;100432.50;20260171;28;97003;-82
2022/07/07 12:05:27;;;;;;;1.20;1.10;;;;;;;25.90;nan;100428.28;20251097;28;96963;-82
2022/07/07 12:15:30;;;;;;;1.58;1.40;;;;;;;25.94;nan;100416.41;20245402;28;97285;-82
2022/07/07 12:25:33;;;;;;;1.83;1.20;;;;;;;26.00;nan;100391.91;20240536;28;96864;-81
2022/07/07 12:35:39;;;;;;;1.23;1.13;;;;;;;26.06;nan;100379.84;20240181;28;96848;-81
2022/07/07 12:45:42;;;;;;;1.00;0.90;;;;;;;26.12;nan;100359.88;20234491;28;97370;-82
2022/07/07 12:55:45;;;;;;;1.20;1.10;;;;;;;26.14;nan;100357.91;20241984;28;97532;-81
2022/07/07 13:05:47;;;;;;;1.10;1.00;;;;;;;26.18;nan;100356.63;20249013;28;96998;-82
2022/07/07 13:15:48;;;;;;;1.38;1.17;;;;;;;26.22;nan;100344.72;20243422;28;97861;-81
2022/07/07 13:25:49;;;;;;;1.15;1.00;;;;;;;26.29;nan;100350.22;20252136;28;97020;-81
2022/07/07 13:35:49;;;;;;;0.93;0.93;;;;;;;26.38;nan;100330.75;20264500;28;96972;-81
2022/07/07 13:45:51;;;;;;;1.38;1.27;;;;;;;26.44;nan;100322.16;20256120;28;96934;-81
2022/07/07 13:55:51;;;;;;;0.90;0.90;;;;;;;26.51;nan;100317.03;20255359;28;97924;-80
2022/07/07 14:05:51;;;;;;;1.20;1.10;;;;;;;26.60;nan;100309.94;20262703;28;96948;-81
2022/07/07 14:15:52;;;;;;;0.90;0.90;;;;;;;26.65;nan;100305.84;20257974;28;98912;-80
2022/07/07 14:25:53;;;;;;;1.20;1.10;;;;;;;26.69;nan;100293.09;20258074;28;96857;-81
2022/07/07 14:35:54;;;;;;;4.50;1.15;;;;;;;26.72;nan;100306.06;20259326;28;98069;-81
2022/07/07 14:45:54;;;;;;;9.35;2.30;;;;;;;26.33;nan;100304.66;20232821;28;99770;-72
2022/07/07 14:55:55;;;;;;;7.68;2.38;;;;;;;26.41;nan;100326.94;20220713;28;102607;-73
2022/07/07 15:05:56;;;;;;;2.97;1.87;;;;;;;26.29;nan;100318.38;20222071;28;101192;-73
2022/07/07 15:15:56;;;;;;;1.87;1.50;;;;;;;26.25;nan;100315.19;20220946;28;97360;-73
2022/07/07 15:25:57;;;;;;;7.70;1.80;;;;;;;26.13;nan;100335.84;20227422;28;97733;-73
2022/07/07 15:35:58;;;;;;;7.27;1.87;;;;;;;26.08;nan;100332.81;20221207;28;96890;-73
2022/07/07 15:45:58;;;;;;;4.35;2.20;;;;;;;25.97;nan;100348.94;20191858;28;97200;-73
2022/07/07 15:55:59;;;;;;;6.28;1.70;;;;;;;25.83;nan;100360.88;20196751;28;98189;-71
2022/07/07 16:06:00;;;;;;;5.23;1.80;;;;;;;25.81;nan;100371.66;20180277;28;97104;-74
2022/07/07 16:16:00;;;;;;;3.80;1.80;;;;;;;25.66;nan;100373.16;20201149;28;97621;-72
2022/07/07 16:26:01;;;;;;;3.05;2.00;;;;;;;25.66;nan;100383.75;20182014;28;98609;-73
2022/07/07 16:36:01;;;;;;;9.30;4.60;;;;;;;25.54;nan;100388.44;20194869;28;98701;-75
2022/07/07 16:46:02;;;;;;;8.20;5.50;;;;;;;25.44;nan;100387.63;20219584;28;98361;-73
2022/07/07 16:56:03;;;;;;;6.47;2.20;;;;;;;25.37;nan;100392.69;20214976;28;97294;-74
2022/07/07 17:06:05;;;;;;;4.07;1.43;;;;;;;25.47;nan;100403.25;20211516;28;96878;-75
2022/07/07 17:16:06;;;;;;;7.70;1.20;;;;;;;25.49;nan;100407.44;20214142;28;97705;-75
2022/07/07 17:26:07;;;;;;;1.35;0.88;;;;;;;25.47;nan;100401.44;20216843;28;100391;-75
2022/07/07 17:36:08;;;;;;;2.73;0.70;;;;;;;25.52;nan;100390.41;20206847;28;106304;-74
2022/07/07 17:46:09;;;;;;;2.17;0.70;;;;;;;25.51;nan;100397.53;20208751;28;101102;-74
2022/07/07 17:56:09;;;;;;;2.05;0.73;;;;;;;25.49;nan;100403.97;20202420;28;97381;-74
2022/07/07 18:06:10;;;;;;;0.40;0.40;;;;;;;25.35;nan;100395.47;20200811;28;97559;-74
2022/07/07 18:16:10;;;;;;;1.70;0.50;;;;;;;25.13;nan;100401.97;20219257;28;96984;-74
2022/07/07 18:26:11;;;;;;;2.92;0.85;;;;;;;24.96;nan;100400.88;20199730;28;97996;-75
2022/07/07 18:36:11;;;;;;;0.70;0.70;;;;;;;24.81;nan;100413.75;20194680;28;102260;-76
2022/07/07 18:46:13;;;;;;;2.42;0.90;;;;;;;24.74;nan;100413.50;20198550;28;98910;-76
2022/07/07 18:56:14;;;;;;;4.63;1.03;;;;;;;24.79;nan;100428.94;20194054;28;99551;-76
2022/07/07 19:06:15;;;;;;;2.23;0.90;;;;;;;24.68;nan;100437.91;20181787;28;100469;-75
2022/07/07 19:16:16;;;;;;;1.23;0.80;;;;;;;24.52;nan;100437.59;20188744;28;101487;-75
2022/07/07 19:26:16;;;;;;;1.52;1.15;;;;;;;24.33;nan;100449.00;20181426;28;97061;-75
2022/07/07 19:36:17;;;;;;;1.95;1.08;;;;;;;24.36;nan;100448.72;20184172;28;97664;-75
2022/07/07 19:46:18;;;;;;;1.50;1.40;;;;;;;24.38;nan;100442.31;20193485;28;97586;-75
2022/07/07 19:56:19;;;;;;;4.97;1.65;;;;;;;24.31;nan;100446.50;20182167;28;100781;-75
2022/07/07 20:06:20;;;;;;;5.87;1.60;;;;;;;24.33;nan;100449.00;20218991;28;97421;-77
2022/07/07 20:16:21;;;;;;;2.70;1.60;;;;;;;24.30;nan;100455.41;20206797;28;98407;-75
2022/07/07 20:26:21;;;;;;;2.42;1.40;;;;;;;24.26;nan;100457.50;20194422;28;98387;-74
2022/07/07 20:36:23;;;;;;;6.30;1.27;;;;;;;24.20;nan;100447.47;20180772;28;99250;-75
2022/07/07 20:46:24;;;;;;;3.37;1.40;;;;;;;24.13;nan;100444.53;20178869;28;97857;-74
2022/07/07 20:56:24;;;;;;;3.33;1.42;;;;;;;24.01;nan;100429.75;20175805;28;99058;-74
2022/07/07 21:06:25;;;;;;;2.88;1.60;;;;;;;23.96;nan;100435.47;20205248;28;97985;-75
2022/07/07 21:16:25;;;;;;;3.35;1.60;;;;;;;24.06;nan;100426.69;20203069;28;97190;-74
2022/07/07 21:26:26;;;;;;;3.78;1.60;;;;;;;24.07;nan;100431.00;20215763;28;97736;-75
2022/07/07 21:36:27;;;;;;;7.00;1.97;;;;;;;23.93;nan;100425.13;20207462;28;97855;-75
2022/07/07 21:46:27;;;;;;;1.65;1.52;;;;;;;23.96;nan;100431.97;20213727;28;99306;-75
2022/07/07 21:56:28;;;;;;;5.38;1.80;;;;;;;23.88;nan;100440.56;20221318;28;98125;-74
2022/07/07 22:16:48;;;;;;;2.83;1.70;;;;;;;23.87;nan;100438.88;20220925;28;98746;-74
2022/07/07 22:26:51;;;;;;;6.35;1.92;;;;;;;23.80;nan;100440.38;20219548;28;97171;-74
2022/07/07 22:36:51;;;;;;;5.07;1.58;;;;;;;23.77;nan;100443.31;20219809;28;97057;-75
2022/07/07 22:46:53;;;;;;;1.77;1.58;;;;;;;23.73;nan;100437.44;20220792;28;97639;-75
2022/07/07 22:56:53;;;;;;;6.78;2.17;;;;;;;23.64;nan;100435.59;20216215;28;101194;-75
2022/07/07 23:06:54;;;;;;;4.78;1.63;;;;;;;23.55;nan;100436.41;20218637;28;97135;-75
2022/07/07 23:16:54;;;;;;;6.82;1.75;;;;;;;23.47;nan;100440.56;20214174;28;97092;-74
2022/07/07 23:26:55;;;;;;;3.40;1.75;;;;;;;23.49;nan;100432.50;20214635;28;100637;-74
2022/07/07 23:36:55;;;;;;;2.10;1.70;;;;;;;23.43;nan;100430.38;20209357;28;97092;-75
2022/07/07 23:46:56;;;;;;;3.80;1.38;;;;;;;23.52;nan;100410.25;20219373;28;96977;-75
2022/07/07 23:56:56;;;;;;;2.47;1.60;;;;;;;23.44;nan;100411.75;20211716;28;97211;-75
